Stations météo

Publicité
Siracusa, Italie (16464): Température de l'air & dewpoint: 03.12.2019 13:00:00 - 09.12.2019 13:00:00 (CET)Siracusa, Italie (16464): Vitesse du vent: 03.12.2019 13:00:00 - 09.12.2019 13:00:00 (CET)Siracusa, Italie (16464): Direction du vent: 03.12.2019 13:00:00 - 09.12.2019 13:00:00 (CET)Siracusa, Italie (16464): reduced air pressure: 03.12.2019 13:00:00 - 09.12.2019 13:00:00 (CET)Siracusa, Italie (16464): Quantités de précipitations: 03.12.2019 13:00:00 - 09.12.2019 13:00:00 (CET)
Date & Time tt [°C] td [°C] ff [km/h] ff [knt] dd ppp [hPa] rr [mm]
09.12.2019 13:00:00 - - - - - - -
09.12.2019 12:00:00 - - - - - - -
09.12.2019 11:00:00 - - - - - - -
09.12.2019 10:00:00 - - - - - - -
09.12.2019 09:00:00 - - - - - - -
09.12.2019 08:00:00 - - - - - - -
09.12.2019 07:00:00 - - - - - - -
09.12.2019 06:00:00 - - - - - - -
09.12.2019 05:00:00 - - - - - - -
09.12.2019 04:00:00 - - - - - - -
09.12.2019 03:00:00 - - - - - - -
09.12.2019 02:00:00 - - - - - - -
09.12.2019 01:00:00 - - - - - - -
09.12.2019 00:00:00 - - - - - - -
08.12.2019 23:00:00 - - - - - - -
08.12.2019 22:00:00 - - - - - - -
08.12.2019 21:00:00 - - - - - - -
08.12.2019 20:00:00 11,8 8,0 2 1 SW 1020,3 -
08.12.2019 19:00:00 12,8 8,4 4 2 SSW 1020,3 -
08.12.2019 18:00:00 14,6 9,8 0 0 N 1020,7 -
08.12.2019 17:00:00 16,3 11,2 2 1 SW 1020,8 -
08.12.2019 16:00:00 16,9 11,3 5 3 SSW 1020,8 -
08.12.2019 15:00:00 17,0 11,0 9 5 W 1020,2 -
08.12.2019 14:00:00 17,4 10,7 5 3 W 1020,7 -
08.12.2019 13:00:00 17,2 10,3 5 3 WNW 1021,5 -
08.12.2019 12:00:00 17,9 9,7 4 2 WNW 1022,4 -
08.12.2019 11:00:00 - - - - - - -
08.12.2019 10:00:00 - - - - - - -
08.12.2019 09:00:00 - - - - - - -
08.12.2019 08:00:00 - - - - - - -
08.12.2019 07:00:00 - - - - - - -
08.12.2019 06:00:00 - - - - - - -
08.12.2019 05:00:00 - - - - - - -
08.12.2019 04:00:00 - - - - - - -
08.12.2019 03:00:00 - - - - - - -
08.12.2019 02:00:00 - - - - - - -
08.12.2019 01:00:00 - - - - - - 0,0
08.12.2019 00:00:00 - - - - - - -
07.12.2019 23:00:00 - - - - - - -
07.12.2019 22:00:00 - - - - - - -
07.12.2019 21:00:00 - - - - - - -
07.12.2019 20:00:00 - - - - - - -
07.12.2019 19:00:00 15,1 11,5 4 2 WNW 1022,5 -
07.12.2019 18:00:00 15,6 11,7 2 1 S 1021,8 -
07.12.2019 17:00:00 17,1 13,2 2 1 WNW 1021,2 -
07.12.2019 16:00:00 17,8 12,8 5 3 WNW 1021,3 -
07.12.2019 15:00:00 19,1 13,0 5 3 W 1021,1 -
07.12.2019 14:00:00 18,9 12,1 5 3 W 1021,4 -
07.12.2019 13:00:00 18,4 11,4 8 4 W 1021,8 -
07.12.2019 12:00:00 19,6 10,0 4 2 SW 1022,6 -
07.12.2019 11:00:00 - - - - - - -
07.12.2019 10:00:00 - - - - - - -
07.12.2019 09:00:00 - - - - - - -
07.12.2019 08:00:00 - - - - - - -
07.12.2019 07:00:00 - - - - - - -
07.12.2019 06:00:00 - - - - - - -
07.12.2019 05:00:00 - - - - - - -
07.12.2019 04:00:00 - - - - - - -
07.12.2019 03:00:00 - - - - - - -
07.12.2019 02:00:00 - - - - - - -
07.12.2019 01:00:00 - - - - - - -
07.12.2019 00:00:00 - - - - - - -
06.12.2019 23:00:00 10,9 6,4 2 1 SSW 1023,4 -
06.12.2019 22:00:00 11,6 6,7 2 1 SW 1023,2 -
06.12.2019 21:00:00 12,6 7,0 5 3 SSW 1023,1 -
06.12.2019 20:00:00 - - - - - - -
06.12.2019 19:00:00 15,0 8,2 4 2 SW 1022,7 -
06.12.2019 18:00:00 16,4 9,3 5 3 SW 1022,2 -
06.12.2019 17:00:00 18,4 10,7 5 3 SW 1021,9 -
06.12.2019 16:00:00 20,2 15,1 4 2 SSW 1021,7 -
06.12.2019 15:00:00 20,3 14,8 4 2 W 1021,6 -
06.12.2019 14:00:00 20,4 16,2 9 5 SSW 1022,0 -
06.12.2019 13:00:00 20,0 16,0 5 3 W 1022,5 -
06.12.2019 12:00:00 19,7 15,5 4 2 W 1023,0 -
06.12.2019 11:00:00 18,7 15,7 4 2 SSW 1023,6 -
06.12.2019 10:00:00 - - - - - - -
06.12.2019 09:00:00 - - - - - - -
06.12.2019 08:00:00 - - - - - - -
06.12.2019 07:00:00 - - - - - - -
06.12.2019 06:00:00 - - - - - - -
06.12.2019 05:00:00 - - - - - - -
06.12.2019 04:00:00 - - - - - - -
06.12.2019 03:00:00 - - - - - - -
06.12.2019 02:00:00 - - - - - - -
06.12.2019 01:00:00 - - - - - - -
06.12.2019 00:00:00 - - - - - - -
05.12.2019 23:00:00 - - - - - - -
05.12.2019 22:00:00 - - - - - - -
05.12.2019 21:00:00 16,2 15,7 15 8 SW 1022,1 -
05.12.2019 20:00:00 16,4 15,0 16 9 SSW 1022,0 -
05.12.2019 19:00:00 16,1 14,4 18 10 SW 1021,5 -
05.12.2019 18:00:00 16,0 14,3 13 7 SW 1020,8 -
05.12.2019 17:00:00 16,1 14,4 9 5 WSW 1020,7 -
05.12.2019 16:00:00 16,4 14,7 9 5 SW 1020,2 -
05.12.2019 15:00:00 16,9 14,5 11 6 SSW 1019,9 -
05.12.2019 14:00:00 17,2 14,4 16 9 W 1019,8 -
05.12.2019 13:00:00 17,4 14,6 13 7 W 1020,3 -
05.12.2019 12:00:00 17,3 13,9 15 8 W 1020,7 -
05.12.2019 11:00:00 16,9 13,9 13 7 W 1021,2 -
05.12.2019 10:00:00 16,4 13,1 11 6 WNW 1020,9 -
05.12.2019 09:00:00 16,0 12,3 11 6 W 1020,5 -
05.12.2019 08:00:00 15,7 12,0 18 10 W 1020,0 -
05.12.2019 07:00:00 15,3 11,5 18 10 W 1020,7 -
05.12.2019 06:00:00 15,5 11,4 16 9 W 1020,6 -
05.12.2019 05:00:00 15,7 11,2 16 9 W 1020,3 -
05.12.2019 04:00:00 15,4 10,3 16 9 W 1019,9 -
05.12.2019 03:00:00 15,7 10,6 16 9 W 1019,3 -
05.12.2019 02:00:00 15,7 10,6 15 8 W 1018,6 -
05.12.2019 01:00:00 15,7 10,8 16 9 W 1018,2 -
05.12.2019 00:00:00 15,8 10,9 24 13 W 1018,8 -
04.12.2019 23:00:00 15,9 10,4 13 7 W 1021,2 -
04.12.2019 22:00:00 15,9 10,8 15 8 WNW 1021,0 -
04.12.2019 21:00:00 15,8 10,7 15 8 W 1020,1 -
04.12.2019 20:00:00 15,7 10,4 9 5 W 1020,6 -
04.12.2019 19:00:00 15,6 10,1 21 11 W 1019,2 -
04.12.2019 18:00:00 15,6 10,7 18 10 W 1019,2 -
04.12.2019 17:00:00 15,9 11,0 18 10 W 1019,0 -
04.12.2019 16:00:00 16,1 11,2 18 10 W 1017,7 -
04.12.2019 15:00:00 16,4 11,7 26 14 WNW 1016,9 -
04.12.2019 14:00:00 16,3 11,6 21 11 WNW 1017,7 -
04.12.2019 13:00:00 16,2 11,3 24 13 WNW 1017,9 -
04.12.2019 12:00:00 16,3 11,4 26 14 W 1018,4 -
04.12.2019 11:00:00 16,4 11,3 24 13 W 1019,2 -
04.12.2019 10:00:00 16,5 11,8 22 12 W 1018,9 -
04.12.2019 09:00:00 16,2 11,7 24 13 SW 1018,7 -
04.12.2019 08:00:00 16,2 12,1 26 14 WNW 1018,4 -
04.12.2019 07:00:00 16,1 12,2 22 12 W 1017,9 -
04.12.2019 06:00:00 16,2 12,5 21 11 W 1017,6 -
04.12.2019 05:00:00 16,2 12,5 16 9 W 1017,1 -
04.12.2019 04:00:00 16,3 12,6 21 11 W 1017,2 -
04.12.2019 03:00:00 16,4 13,1 22 12 W 1017,4 -
04.12.2019 02:00:00 16,4 13,8 18 10 W 1017,2 -
04.12.2019 01:00:00 16,4 15,9 21 11 W 1017,0 -
04.12.2019 00:00:00 17,6 16,4 13 7 SW 1016,6 -
03.12.2019 23:00:00 17,5 17,1 8 4 SW 1016,3 -
03.12.2019 22:00:00 17,3 16,6 9 5 SW 1015,9 -
03.12.2019 21:00:00 17,7 16,3 13 7 WSW 1015,6 -
03.12.2019 20:00:00 18,0 17,3 9 5 W 1015,2 -
03.12.2019 19:00:00 18,1 17,4 8 4 WNW 1014,8 -
03.12.2019 18:00:00 18,4 16,3 8 4 WNW 1014,2 -
03.12.2019 17:00:00 18,8 16,5 4 2 W 1013,8 -
03.12.2019 16:00:00 19,0 16,4 5 3 W 1013,3 -
03.12.2019 15:00:00 19,5 16,7 5 3 W 1013,6 -
03.12.2019 14:00:00 19,2 16,5 5 3 WNW 1013,7 -
03.12.2019 13:00:00 19,3 16,6 5 3 WNW 1014,3 -

tt = Température de l'air
td = dewpoint
ff = Vitesse du vent
dd = Direction du vent
ppp = reduced air pressure
rr = Quantités de précipitations

stations d'obs. à proximité